JTM125 ZHCC-ZBAA
Flight info
| Callsign | JTM125 |
|---|---|
| Flight time | 1h 42m |
| Altitude | 33100 |
| Route | OKTOX W56 DUGEB |
| Aircraft | B738/M-SDE2FGHIRWY/L |
Departure
| Time | 2026-05-04 08:11 |
|---|---|
| Airport | Zhengzhou Xinzheng International Airport (ZHCC) |
Arrival
| Time | 2026-05-04 09:53 |
|---|---|
| Airport | Beijing Capital International Airport (ZBAA) |
| Time | Latitude | Longitude | Altitude | Speed | Heading |
|---|---|---|---|---|---|
| 2026-05-04 07:56 | 34.52627 | 113.85111 | 488 ft | 0 kts | 292° |
| 2026-05-04 08:03 | 34.52626 | 113.85113 | 488 ft | 1 kts | 292° |
| 2026-05-04 08:04 | 34.52615 | 113.85143 | 488 ft | 5 kts | 292° |
| 2026-05-04 08:04 | 34.52602 | 113.85181 | 488 ft | 4 kts | 292° |
| 2026-05-04 08:04 | 34.52593 | 113.85211 | 487 ft | 3 kts | 292° |
| 2026-05-04 08:04 | 34.52583 | 113.85237 | 487 ft | 3 kts | 292° |
| 2026-05-04 08:05 | 34.52577 | 113.85248 | 487 ft | 0 kts | 26° |
| 2026-05-04 08:05 | 34.52580 | 113.85250 | 487 ft | 1 kts | 31° |
| 2026-05-04 08:05 | 34.52594 | 113.85262 | 487 ft | 4 kts | 36° |
| 2026-05-04 08:05 | 34.52649 | 113.85313 | 487 ft | 14 kts | 38° |
| 2026-05-04 08:06 | 34.52735 | 113.85376 | 487 ft | 14 kts | 22° |
| 2026-05-04 08:06 | 34.52830 | 113.85422 | 485 ft | 15 kts | 23° |
| 2026-05-04 08:06 | 34.52934 | 113.85475 | 484 ft | 16 kts | 22° |
| 2026-05-04 08:06 | 34.53041 | 113.85529 | 484 ft | 16 kts | 23° |
| 2026-05-04 08:08 | 34.53545 | 113.84707 | 502 ft | 29 kts | 292° |
| 2026-05-04 08:08 | 34.53620 | 113.84489 | 506 ft | 27 kts | 292° |
| 2026-05-04 08:10 | 34.52967 | 113.87021 | 825 ft | 191 kts | 114° |
| 2026-05-04 08:11 | 34.52434 | 113.88496 | 1819 ft | 197 kts | 115° |
| 2026-05-04 08:11 | 34.51183 | 113.91447 | 3725 ft | 205 kts | 121° |
| 2026-05-04 08:11 | 34.50522 | 113.93024 | 4334 ft | 224 kts | 109° |
| 2026-05-04 08:12 | 34.50101 | 113.94936 | 4944 ft | 244 kts | 105° |
| 2026-05-04 08:12 | 34.49610 | 113.96962 | 5616 ft | 261 kts | 109° |
| 2026-05-04 08:12 | 34.48966 | 113.99072 | 6293 ft | 278 kts | 112° |
| 2026-05-04 08:12 | 34.48230 | 114.01258 | 7126 ft | 287 kts | 112° |
| 2026-05-04 08:13 | 34.47465 | 114.03481 | 8061 ft | 292 kts | 112° |
| 2026-05-04 08:13 | 34.46667 | 114.05766 | 9040 ft | 296 kts | 111° |
| 2026-05-04 08:13 | 34.46056 | 114.08111 | 9959 ft | 299 kts | 100° |
| 2026-05-04 08:13 | 34.45755 | 114.10603 | 10877 ft | 303 kts | 94° |
| 2026-05-04 08:14 | 34.45571 | 114.13144 | 11832 ft | 306 kts | 93° |
| 2026-05-04 08:14 | 34.45387 | 114.15697 | 12772 ft | 310 kts | 93° |
| 2026-05-04 08:14 | 34.45163 | 114.18300 | 13748 ft | 313 kts | 94° |
| 2026-05-04 08:16 | 34.42995 | 114.39632 | 17755 ft | 420 kts | 92° |
| 2026-05-04 08:16 | 34.42920 | 114.43152 | 18482 ft | 425 kts | 84° |
| 2026-05-04 08:16 | 34.43339 | 114.46699 | 19294 ft | 427 kts | 74° |
| 2026-05-04 08:17 | 34.44120 | 114.50178 | 20113 ft | 430 kts | 69° |
| 2026-05-04 08:17 | 34.45207 | 114.53547 | 20921 ft | 431 kts | 60° |
| 2026-05-04 08:17 | 34.46733 | 114.56657 | 21655 ft | 433 kts | 51° |
| 2026-05-04 08:17 | 34.48653 | 114.59387 | 22426 ft | 432 kts | 41° |
| 2026-05-04 08:19 | 34.68318 | 114.66370 | 27758 ft | 430 kts | 350° |
| 2026-05-04 08:19 | 34.71232 | 114.65665 | 28579 ft | 427 kts | 343° |
| 2026-05-04 08:20 | 34.74017 | 114.64399 | 29376 ft | 424 kts | 333° |
| 2026-05-04 08:20 | 34.76638 | 114.62772 | 29896 ft | 428 kts | 334° |
| 2026-05-04 08:20 | 34.79439 | 114.61449 | 30297 ft | 435 kts | 341° |
| 2026-05-04 08:20 | 34.82383 | 114.60535 | 30884 ft | 438 kts | 347° |
| 2026-05-04 08:21 | 34.85389 | 114.60029 | 31556 ft | 438 kts | 353° |
| 2026-05-04 08:21 | 34.88428 | 114.59925 | 32209 ft | 438 kts | 359° |
| 2026-05-04 08:21 | 34.91491 | 114.60147 | 32786 ft | 440 kts | 2° |
| 2026-05-04 08:21 | 34.94520 | 114.60518 | 33009 ft | 445 kts | 3° |
| 2026-05-04 08:22 | 35.00656 | 114.61369 | 33014 ft | 438 kts | 3° |
| 2026-05-04 08:24 | 35.25134 | 114.64043 | 33020 ft | 438 kts | 1° |
| 2026-05-04 08:24 | 35.31236 | 114.64634 | 33023 ft | 437 kts | 1° |
| 2026-05-04 08:25 | 35.37299 | 114.65219 | 33019 ft | 438 kts | 1° |
| 2026-05-04 08:25 | 35.43370 | 114.65806 | 33013 ft | 438 kts | 1° |
| 2026-05-04 08:27 | 35.67730 | 114.68173 | 33015 ft | 436 kts | 1° |
| 2026-05-04 08:28 | 35.73761 | 114.68761 | 33015 ft | 437 kts | 1° |
| 2026-05-04 08:28 | 35.79854 | 114.69356 | 33011 ft | 436 kts | 1° |
| 2026-05-04 08:29 | 35.85891 | 114.69947 | 33013 ft | 436 kts | 1° |
| 2026-05-04 08:31 | 36.10166 | 114.72330 | 33010 ft | 435 kts | 1° |
| 2026-05-04 08:33 | 36.34292 | 114.74811 | 33000 ft | 435 kts | 5° |
| 2026-05-04 08:35 | 36.54189 | 114.84570 | 32995 ft | 442 kts | 21° |
| 2026-05-04 08:35 | 36.56998 | 114.86239 | 32991 ft | 442 kts | 21° |
| 2026-05-04 08:35 | 36.62545 | 114.89513 | 32985 ft | 442 kts | 21° |
| 2026-05-04 08:37 | 36.81971 | 115.00868 | 32977 ft | 440 kts | 21° |
| 2026-05-04 08:38 | 36.87555 | 115.04134 | 32973 ft | 441 kts | 21° |
| 2026-05-04 08:38 | 36.93138 | 115.07404 | 32972 ft | 440 kts | 21° |
| 2026-05-04 08:40 | 37.15268 | 115.20418 | 32965 ft | 438 kts | 21° |
| 2026-05-04 08:41 | 37.20780 | 115.23673 | 32968 ft | 438 kts | 21° |
| 2026-05-04 08:41 | 37.26297 | 115.26937 | 32963 ft | 438 kts | 21° |
| 2026-05-04 08:42 | 37.31842 | 115.30222 | 32962 ft | 438 kts | 21° |
| 2026-05-04 08:42 | 37.37351 | 115.33491 | 32960 ft | 437 kts | 20° |
| 2026-05-04 08:43 | 37.42901 | 115.36788 | 32961 ft | 438 kts | 21° |
| 2026-05-04 08:43 | 37.48456 | 115.40095 | 32952 ft | 438 kts | 21° |
| 2026-05-04 08:44 | 37.53997 | 115.43400 | 32957 ft | 438 kts | 21° |
| 2026-05-04 08:46 | 37.75956 | 115.56492 | 32944 ft | 435 kts | 19° |
| 2026-05-04 08:46 | 37.81680 | 115.58527 | 32949 ft | 427 kts | 2° |
| 2026-05-04 08:47 | 37.87618 | 115.58560 | 32937 ft | 423 kts | 354° |
| 2026-05-04 08:47 | 37.93477 | 115.58076 | 32942 ft | 422 kts | 353° |
| 2026-05-04 08:48 | 37.99351 | 115.57539 | 32935 ft | 422 kts | 353° |
| 2026-05-04 08:48 | 38.05182 | 115.57048 | 32941 ft | 423 kts | 353° |
| 2026-05-04 08:49 | 38.11069 | 115.56628 | 32940 ft | 424 kts | 354° |
| 2026-05-04 08:50 | 38.28684 | 115.56958 | 32934 ft | 430 kts | 14° |
| 2026-05-04 08:50 | 38.31503 | 115.58330 | 32935 ft | 432 kts | 19° |
| 2026-05-04 08:51 | 38.36972 | 115.61634 | 32932 ft | 435 kts | 22° |
| 2026-05-04 08:51 | 38.42339 | 115.65109 | 32928 ft | 434 kts | 23° |
| 2026-05-04 08:52 | 38.47756 | 115.68614 | 32932 ft | 435 kts | 23° |
| 2026-05-04 08:52 | 38.53192 | 115.72098 | 32922 ft | 433 kts | 23° |
| 2026-05-04 08:54 | 38.74962 | 115.85380 | 28119 ft | 439 kts | 20° |
| 2026-05-04 08:55 | 38.77741 | 115.86886 | 27864 ft | 425 kts | 20° |
| 2026-05-04 08:55 | 38.80389 | 115.88327 | 27647 ft | 411 kts | 21° |
| 2026-05-04 08:55 | 38.82993 | 115.89760 | 27341 ft | 401 kts | 21° |
| 2026-05-04 08:55 | 38.85543 | 115.91186 | 26768 ft | 397 kts | 21° |
| 2026-05-04 08:57 | 38.96887 | 116.10046 | 22512 ft | 386 kts | 58° |
| 2026-05-04 09:01 | 39.26261 | 116.16503 | 17173 ft | 284 kts | 352° |
| 2026-05-04 09:01 | 39.28217 | 116.16207 | 16819 ft | 281 kts | 352° |
| 2026-05-04 09:01 | 39.30132 | 116.15917 | 16437 ft | 278 kts | 352° |
| 2026-05-04 09:01 | 39.32049 | 116.15627 | 16053 ft | 275 kts | 352° |
| 2026-05-04 09:02 | 39.33947 | 116.15339 | 15677 ft | 273 kts | 351° |
| 2026-05-04 09:02 | 39.35816 | 116.15056 | 15320 ft | 270 kts | 351° |
| 2026-05-04 09:02 | 39.37666 | 116.14774 | 14922 ft | 268 kts | 351° |
| 2026-05-04 09:02 | 39.39513 | 116.14494 | 14553 ft | 265 kts | 351° |
| 2026-05-04 09:03 | 39.41331 | 116.14217 | 14163 ft | 263 kts | 351° |
| 2026-05-04 09:03 | 39.43137 | 116.13943 | 13800 ft | 260 kts | 350° |
| 2026-05-04 09:03 | 39.44924 | 116.13671 | 13457 ft | 257 kts | 350° |
| 2026-05-04 09:03 | 39.46704 | 116.13400 | 13068 ft | 255 kts | 350° |
| 2026-05-04 09:04 | 39.48463 | 116.13131 | 12645 ft | 256 kts | 350° |
| 2026-05-04 09:04 | 39.50218 | 116.12863 | 12230 ft | 256 kts | 350° |
| 2026-05-04 09:04 | 39.51973 | 116.12595 | 11879 ft | 254 kts | 350° |
| 2026-05-04 09:04 | 39.53719 | 116.12330 | 11828 ft | 251 kts | 349° |
| 2026-05-04 09:05 | 39.55466 | 116.12061 | 11835 ft | 255 kts | 349° |
| 2026-05-04 09:05 | 39.57237 | 116.11790 | 11827 ft | 254 kts | 349° |
| 2026-05-04 09:05 | 39.58982 | 116.11523 | 11830 ft | 255 kts | 349° |
| 2026-05-04 09:05 | 39.60766 | 116.11249 | 11829 ft | 256 kts | 350° |
| 2026-05-04 09:06 | 39.62523 | 116.10980 | 11829 ft | 255 kts | 350° |
| 2026-05-04 09:07 | 39.74880 | 116.09083 | 11826 ft | 256 kts | 349° |
| 2026-05-04 09:08 | 39.76653 | 116.08810 | 11824 ft | 256 kts | 349° |
| 2026-05-04 09:08 | 39.78419 | 116.08538 | 11819 ft | 256 kts | 349° |
| 2026-05-04 09:08 | 39.80202 | 116.08263 | 11813 ft | 255 kts | 349° |
| 2026-05-04 09:08 | 39.81967 | 116.07992 | 11823 ft | 256 kts | 350° |
| 2026-05-04 09:09 | 39.83723 | 116.07816 | 11825 ft | 256 kts | 354° |
| 2026-05-04 09:09 | 39.85537 | 116.07786 | 11822 ft | 258 kts | 356° |
| 2026-05-04 09:09 | 39.87313 | 116.07816 | 11828 ft | 258 kts | 356° |
| 2026-05-04 09:09 | 39.89112 | 116.07849 | 11828 ft | 258 kts | 356° |
| 2026-05-04 09:10 | 39.90905 | 116.07866 | 11826 ft | 258 kts | 356° |
| 2026-05-04 09:10 | 39.92700 | 116.07870 | 11820 ft | 258 kts | 356° |
| 2026-05-04 09:10 | 39.94495 | 116.07872 | 11818 ft | 258 kts | 356° |
| 2026-05-04 09:10 | 39.96291 | 116.07873 | 11805 ft | 257 kts | 356° |
| 2026-05-04 09:11 | 39.98119 | 116.07873 | 11919 ft | 274 kts | 356° |
| 2026-05-04 09:11 | 40.00008 | 116.07873 | 13127 ft | 271 kts | 356° |
| 2026-05-04 09:11 | 40.01919 | 116.07876 | 13610 ft | 281 kts | 356° |
| 2026-05-04 09:11 | 40.03867 | 116.07877 | 13622 ft | 276 kts | 356° |
| 2026-05-04 09:12 | 40.05736 | 116.07883 | 13619 ft | 262 kts | 355° |
| 2026-05-04 09:12 | 40.07528 | 116.07645 | 13617 ft | 260 kts | 342° |
| 2026-05-04 09:14 | 40.16050 | 115.96014 | 13642 ft | 257 kts | 321° |
| 2026-05-04 09:14 | 40.17462 | 115.94587 | 13651 ft | 258 kts | 322° |
| 2026-05-04 09:14 | 40.18876 | 115.93143 | 13655 ft | 258 kts | 321° |
| 2026-05-04 09:14 | 40.20289 | 115.91669 | 13636 ft | 257 kts | 322° |
| 2026-05-04 09:15 | 40.21772 | 115.90379 | 13652 ft | 259 kts | 330° |
| 2026-05-04 09:15 | 40.23385 | 115.89354 | 13656 ft | 260 kts | 334° |
| 2026-05-04 09:15 | 40.25049 | 115.88412 | 13660 ft | 259 kts | 335° |
| 2026-05-04 09:15 | 40.26688 | 115.87475 | 13659 ft | 257 kts | 334° |
| 2026-05-04 09:17 | 40.38391 | 115.92252 | 13553 ft | 290 kts | 82° |
| 2026-05-04 09:18 | 40.38484 | 115.94820 | 13407 ft | 280 kts | 83° |
| 2026-05-04 09:18 | 40.38552 | 115.97347 | 13079 ft | 278 kts | 83° |
| 2026-05-04 09:18 | 40.38637 | 115.99882 | 12775 ft | 276 kts | 82° |
| 2026-05-04 09:18 | 40.38736 | 116.02360 | 12450 ft | 275 kts | 82° |
| 2026-05-04 09:19 | 40.38845 | 116.04868 | 12129 ft | 273 kts | 82° |
| 2026-05-04 09:19 | 40.38955 | 116.07327 | 11783 ft | 273 kts | 83° |
| 2026-05-04 09:19 | 40.39066 | 116.09823 | 11454 ft | 272 kts | 83° |
| 2026-05-04 09:19 | 40.39174 | 116.12283 | 11130 ft | 272 kts | 83° |
| 2026-05-04 09:20 | 40.39282 | 116.14754 | 10838 ft | 270 kts | 83° |
| 2026-05-04 09:20 | 40.39387 | 116.17203 | 10539 ft | 270 kts | 83° |
| 2026-05-04 09:20 | 40.39492 | 116.19633 | 10216 ft | 269 kts | 84° |
| 2026-05-04 09:20 | 40.39597 | 116.22074 | 9946 ft | 267 kts | 83° |
| 2026-05-04 09:21 | 40.39702 | 116.24522 | 9639 ft | 267 kts | 84° |
| 2026-05-04 09:21 | 40.39805 | 116.26926 | 9347 ft | 266 kts | 84° |
| 2026-05-04 09:21 | 40.39907 | 116.29340 | 9084 ft | 264 kts | 84° |
| 2026-05-04 09:21 | 40.40007 | 116.31723 | 8828 ft | 263 kts | 85° |
| 2026-05-04 09:22 | 40.40112 | 116.34117 | 8551 ft | 262 kts | 85° |
| 2026-05-04 09:22 | 40.40217 | 116.36476 | 8304 ft | 259 kts | 85° |
| 2026-05-04 09:22 | 40.40321 | 116.38821 | 8042 ft | 258 kts | 85° |
| 2026-05-04 09:22 | 40.40424 | 116.41157 | 7865 ft | 252 kts | 85° |
| 2026-05-04 09:23 | 40.40501 | 116.43398 | 7766 ft | 244 kts | 90° |
| 2026-05-04 09:23 | 40.40267 | 116.45571 | 7636 ft | 236 kts | 113° |
| 2026-05-04 09:23 | 40.39423 | 116.47338 | 7495 ft | 225 kts | 132° |
| 2026-05-04 09:23 | 40.38394 | 116.48875 | 7237 ft | 224 kts | 134° |
| 2026-05-04 09:25 | 40.30543 | 116.56131 | 5688 ft | 169 kts | 178° |
| 2026-05-04 09:25 | 40.29423 | 116.56290 | 5521 ft | 153 kts | 178° |
| 2026-05-04 09:26 | 40.28448 | 116.56426 | 5384 ft | 133 kts | 178° |
| 2026-05-04 09:26 | 40.27527 | 116.56559 | 4999 ft | 134 kts | 177° |
| 2026-05-04 09:26 | 40.26611 | 116.56699 | 4625 ft | 132 kts | 177° |
| 2026-05-04 09:26 | 40.25704 | 116.56841 | 4247 ft | 131 kts | 177° |
| 2026-05-04 09:27 | 40.24810 | 116.56982 | 3875 ft | 130 kts | 176° |
| 2026-05-04 09:27 | 40.23912 | 116.57124 | 3496 ft | 129 kts | 176° |
| 2026-05-04 09:27 | 40.23037 | 116.57262 | 3132 ft | 128 kts | 176° |
| 2026-05-04 09:27 | 40.22160 | 116.57401 | 2770 ft | 126 kts | 176° |
| 2026-05-04 09:28 | 40.21282 | 116.57541 | 2446 ft | 125 kts | 175° |
| 2026-05-04 09:28 | 40.20425 | 116.57676 | 2333 ft | 125 kts | 175° |
| 2026-05-04 09:28 | 40.19554 | 116.57814 | 2173 ft | 126 kts | 175° |
| 2026-05-04 09:28 | 40.18686 | 116.57950 | 1986 ft | 125 kts | 175° |
| 2026-05-04 09:29 | 40.17821 | 116.58087 | 1830 ft | 126 kts | 175° |
| 2026-05-04 09:29 | 40.16960 | 116.58224 | 1665 ft | 124 kts | 175° |
| 2026-05-04 09:29 | 40.16096 | 116.58360 | 1501 ft | 124 kts | 174° |
| 2026-05-04 09:29 | 40.15236 | 116.58495 | 1343 ft | 126 kts | 176° |
| 2026-05-04 09:30 | 40.14378 | 116.58630 | 1170 ft | 123 kts | 175° |
| 2026-05-04 09:30 | 40.13509 | 116.58762 | 1016 ft | 126 kts | 176° |
| 2026-05-04 09:30 | 40.12642 | 116.58885 | 839 ft | 125 kts | 175° |
| 2026-05-04 09:30 | 40.11783 | 116.59068 | 687 ft | 125 kts | 170° |
| 2026-05-04 09:31 | 40.10917 | 116.59233 | 529 ft | 124 kts | 176° |
| 2026-05-04 09:31 | 40.10055 | 116.59320 | 382 ft | 126 kts | 178° |
| 2026-05-04 09:31 | 40.09189 | 116.59454 | 277 ft | 125 kts | 174° |
| 2026-05-04 09:31 | 40.08313 | 116.59585 | 153 ft | 121 kts | 178° |
| 2026-05-04 09:32 | 40.07485 | 116.59740 | 213 ft | 132 kts | 174° |
| 2026-05-04 09:32 | 40.06577 | 116.59930 | 884 ft | 131 kts | 171° |
| 2026-05-04 09:34 | 39.97742 | 116.61242 | 3007 ft | 221 kts | 175° |
| 2026-05-04 09:34 | 39.96188 | 116.61480 | 3008 ft | 222 kts | 175° |
| 2026-05-04 09:34 | 39.94661 | 116.61711 | 3010 ft | 222 kts | 175° |
| 2026-05-04 09:34 | 39.93127 | 116.61948 | 3013 ft | 221 kts | 175° |
| 2026-05-04 09:35 | 39.91584 | 116.62190 | 3015 ft | 222 kts | 175° |
| 2026-05-04 09:35 | 39.90071 | 116.62428 | 3016 ft | 220 kts | 175° |
| 2026-05-04 09:35 | 39.88576 | 116.62666 | 3015 ft | 210 kts | 175° |
| 2026-05-04 09:35 | 39.87122 | 116.62913 | 3019 ft | 211 kts | 172° |
| 2026-05-04 09:37 | 39.86582 | 116.75150 | 6035 ft | 270 kts | 28° |
| 2026-05-04 09:37 | 39.88290 | 116.75911 | 6016 ft | 252 kts | 4° |
| 2026-05-04 09:38 | 39.89973 | 116.75944 | 6012 ft | 238 kts | 352° |
| 2026-05-04 09:38 | 39.91611 | 116.75712 | 6009 ft | 237 kts | 349° |
| 2026-05-04 09:38 | 39.93247 | 116.75417 | 6000 ft | 237 kts | 348° |
| 2026-05-04 09:38 | 39.94883 | 116.75128 | 5998 ft | 237 kts | 349° |
| 2026-05-04 09:39 | 39.96526 | 116.74854 | 6000 ft | 238 kts | 349° |
| 2026-05-04 09:39 | 39.98180 | 116.74583 | 6000 ft | 239 kts | 349° |
| 2026-05-04 09:39 | 39.99893 | 116.74303 | 6010 ft | 262 kts | 349° |
| 2026-05-04 09:39 | 40.01772 | 116.73989 | 5993 ft | 280 kts | 350° |
| 2026-05-04 09:40 | 40.03723 | 116.73672 | 5998 ft | 283 kts | 350° |
| 2026-05-04 09:40 | 40.05685 | 116.73361 | 6000 ft | 282 kts | 351° |
| 2026-05-04 09:40 | 40.07638 | 116.73069 | 6004 ft | 283 kts | 351° |
| 2026-05-04 09:40 | 40.09601 | 116.72782 | 6003 ft | 283 kts | 351° |
| 2026-05-04 09:41 | 40.11559 | 116.72496 | 6002 ft | 282 kts | 351° |
| 2026-05-04 09:42 | 40.25224 | 116.70458 | 5991 ft | 284 kts | 351° |
| 2026-05-04 09:43 | 40.27198 | 116.70162 | 5996 ft | 278 kts | 351° |
| 2026-05-04 09:43 | 40.29065 | 116.69886 | 5985 ft | 263 kts | 350° |
| 2026-05-04 09:43 | 40.30827 | 116.69625 | 5911 ft | 252 kts | 351° |
| 2026-05-04 09:43 | 40.32541 | 116.69367 | 5838 ft | 242 kts | 350° |
| 2026-05-04 09:44 | 40.34149 | 116.68923 | 5758 ft | 229 kts | 335° |
| 2026-05-04 09:44 | 40.35431 | 116.67837 | 5620 ft | 215 kts | 308° |
| 2026-05-04 09:44 | 40.36251 | 116.66238 | 5385 ft | 210 kts | 291° |
| 2026-05-04 09:46 | 40.33420 | 116.55679 | 4030 ft | 199 kts | 190° |
| 2026-05-04 09:46 | 40.32037 | 116.55718 | 4020 ft | 197 kts | 174° |
| 2026-05-04 09:46 | 40.30691 | 116.56009 | 3791 ft | 198 kts | 171° |
| 2026-05-04 09:47 | 40.29325 | 116.56323 | 3597 ft | 194 kts | 175° |
| 2026-05-04 09:47 | 40.28035 | 116.56515 | 3515 ft | 181 kts | 176° |
| 2026-05-04 09:49 | 40.21156 | 116.57574 | 2480 ft | 129 kts | 175° |
| 2026-05-04 09:49 | 40.20251 | 116.57715 | 2291 ft | 131 kts | 176° |
| 2026-05-04 09:49 | 40.19355 | 116.57855 | 2122 ft | 128 kts | 176° |
| 2026-05-04 09:51 | 40.14013 | 116.58694 | 1113 ft | 130 kts | 176° |
| 2026-05-04 09:51 | 40.13108 | 116.58836 | 963 ft | 128 kts | 173° |
| 2026-05-04 09:51 | 40.12225 | 116.59014 | 766 ft | 130 kts | 175° |
| 2026-05-04 09:51 | 40.11327 | 116.59198 | 589 ft | 128 kts | 176° |
| 2026-05-04 09:52 | 40.10455 | 116.59332 | 424 ft | 129 kts | 176° |
| 2026-05-04 09:52 | 40.09574 | 116.59434 | 335 ft | 123 kts | 178° |
| 2026-05-04 09:52 | 40.08702 | 116.59546 | 139 ft | 128 kts | 178° |
| 2026-05-04 09:52 | 40.07905 | 116.59655 | 122 ft | 87 kts | 175° |
| 2026-05-04 09:53 | 40.07572 | 116.59701 | 122 ft | 28 kts | 173° |
| 2026-05-04 09:53 | 40.07377 | 116.59811 | 122 ft | 30 kts | 146° |
| 2026-05-04 09:53 | 40.07310 | 116.60024 | 122 ft | 27 kts | 83° |
| 2026-05-04 09:53 | 40.07328 | 116.60245 | 122 ft | 12 kts | 81° |
| 2026-05-04 09:54 | 40.07336 | 116.60358 | 122 ft | 13 kts | 86° |
| 2026-05-04 09:54 | 40.07346 | 116.60495 | 122 ft | 3 kts | 84° |